createdAt,value
2019-01-28T00:00:32.904Z,3.23
2019-01-28T00:03:02.528Z,3.50
2019-01-28T00:05:31.000Z,3.73
2019-01-28T00:07:59.466Z,3.47
2019-01-28T00:10:27.950Z,4.17
2019-01-28T00:12:56.510Z,3.50
2019-01-28T00:15:25.138Z,3.63
2019-01-28T00:17:53.619Z,4.83
2019-01-28T00:20:22.169Z,5.37
2019-01-28T00:22:50.717Z,4.93
2019-01-28T00:25:19.279Z,6.00
2019-01-28T00:27:47.838Z,5.20
2019-01-28T00:30:16.446Z,6.20
2019-01-28T00:32:44.998Z,5.97
2019-01-28T00:35:13.541Z,4.83
2019-01-28T00:37:42.068Z,5.97
2019-01-28T00:40:11.621Z,5.90
2019-01-28T00:42:40.077Z,5.23
2019-01-28T00:45:11.295Z,5.43
2019-01-28T00:47:39.770Z,6.10
2019-01-28T00:50:11.296Z,4.53
2019-01-28T00:52:39.751Z,5.97
2019-01-28T00:55:10.863Z,7.77
2019-01-28T00:57:39.354Z,5.77
2019-01-28T01:00:10.918Z,4.67
2019-01-28T01:02:39.492Z,5.00
2019-01-28T01:05:08.096Z,6.30
2019-01-28T01:07:36.627Z,8.47
2019-01-28T01:10:08.181Z,4.83
2019-01-28T01:12:36.672Z,5.20
2019-01-28T01:15:08.038Z,4.30
2019-01-28T01:17:36.528Z,4.77
2019-01-28T01:20:07.968Z,4.97
2019-01-28T01:22:36.429Z,4.33
2019-01-28T01:25:06.252Z,3.57
2019-01-28T01:27:34.726Z,5.30
2019-01-28T01:30:04.995Z,5.73
2019-01-28T01:32:35.222Z,4.70
2019-01-28T01:35:04.744Z,5.03
2019-01-28T01:37:33.273Z,3.80
2019-01-28T01:40:01.829Z,4.87
2019-01-28T01:42:30.310Z,4.27
2019-01-28T01:44:58.800Z,4.33
2019-01-28T01:47:27.294Z,3.73
2019-01-28T01:49:55.762Z,4.10
2019-01-28T01:52:24.238Z,3.13
2019-01-28T01:54:52.729Z,3.37
2019-01-28T01:57:21.274Z,4.03
2019-01-28T01:59:49.749Z,3.13
2019-01-28T02:02:18.228Z,2.90
2019-01-28T02:04:46.689Z,3.60
2019-01-28T02:07:15.187Z,3.23
2019-01-28T02:09:43.643Z,3.23
2019-01-28T02:12:12.142Z,4.80
2019-01-28T02:14:40.969Z,2.83
2019-01-28T02:17:09.461Z,3.53
2019-01-28T02:19:37.923Z,4.13
2019-01-28T02:22:06.725Z,3.73
2019-01-28T02:24:35.201Z,4.43
2019-01-28T02:27:03.650Z,3.63
2019-01-28T02:29:32.123Z,3.57
2019-01-28T02:32:00.579Z,4.43
2019-01-28T02:34:29.078Z,4.57
2019-01-28T02:36:57.524Z,4.37
2019-01-28T02:39:26.016Z,4.10
2019-01-28T02:41:54.496Z,3.67
2019-01-28T02:44:22.991Z,2.83
2019-01-28T02:46:51.520Z,4.13
2019-01-28T02:49:20.015Z,4.13
2019-01-28T02:51:48.462Z,3.80
2019-01-28T02:54:16.982Z,3.90
2019-01-28T02:56:45.502Z,2.70
2019-01-28T02:59:13.975Z,4.53
2019-01-28T03:01:42.459Z,2.33
2019-01-28T03:04:11.000Z,3.10
2019-01-28T03:06:39.551Z,2.60
2019-01-28T03:09:08.661Z,2.33
2019-01-28T03:11:37.307Z,4.70
2019-01-28T03:14:06.038Z,2.43
2019-01-28T03:16:34.507Z,3.37
2019-01-28T03:19:03.121Z,3.80
2019-01-28T03:21:31.661Z,1.90
2019-01-28T03:24:00.248Z,1.70
2019-01-28T03:26:28.734Z,2.50
2019-01-28T03:28:57.318Z,2.80
2019-01-28T03:31:25.849Z,1.73
2019-01-28T03:33:54.387Z,1.63
2019-01-28T03:36:23.210Z,2.83
2019-01-28T03:38:51.678Z,2.93
2019-01-28T03:41:20.159Z,2.57
2019-01-28T03:43:48.707Z,3.33
2019-01-28T03:46:17.268Z,3.20
2019-01-28T03:48:45.798Z,2.33
2019-01-28T03:51:14.306Z,2.87
2019-01-28T03:53:42.767Z,1.70
2019-01-28T03:56:11.571Z,1.67
2019-01-28T03:58:40.222Z,2.60
2019-01-28T04:01:08.776Z,1.80
2019-01-28T04:03:37.318Z,1.83
2019-01-28T04:06:05.880Z,2.30
2019-01-28T04:08:34.342Z,2.03
2019-01-28T04:11:02.807Z,1.80
2019-01-28T04:13:31.263Z,1.43
2019-01-28T04:15:59.740Z,2.80
2019-01-28T04:18:28.380Z,3.13
2019-01-28T04:20:56.913Z,2.87
2019-01-28T04:23:25.447Z,3.13
2019-01-28T04:25:54.000Z,2.70
2019-01-28T04:28:22.466Z,1.47
2019-01-28T04:30:50.943Z,1.73
2019-01-28T04:33:19.408Z,1.40
2019-01-28T04:35:47.906Z,1.27
2019-01-28T04:38:16.449Z,1.20
2019-01-28T04:40:45.025Z,1.30
2019-01-28T04:43:13.485Z,1.93
2019-01-28T04:45:41.941Z,2.07
2019-01-28T04:48:10.439Z,1.77
2019-01-28T04:50:38.891Z,1.73
2019-01-28T04:53:07.633Z,1.93
2019-01-28T04:55:36.172Z,1.33
2019-01-28T04:58:04.894Z,1.70
2019-01-28T05:00:33.411Z,2.50
2019-01-28T05:03:01.906Z,1.57
2019-01-28T05:05:30.401Z,1.03
2019-01-28T05:07:58.944Z,2.13
2019-01-28T05:10:27.471Z,1.93
2019-01-28T05:12:56.018Z,5.03
2019-01-28T05:15:24.747Z,4.67
2019-01-28T05:17:53.584Z,3.53
2019-01-28T05:20:23.469Z,8.03
2019-01-28T05:22:52.386Z,8.20
2019-01-28T05:25:21.071Z,9.17
2019-01-28T05:27:49.979Z,7.70
2019-01-28T05:30:25.572Z,4.57
2019-01-28T05:32:54.144Z,4.70
2019-01-28T05:35:23.760Z,2.10
2019-01-28T05:37:51.981Z,3.20
2019-01-28T05:40:22.490Z,3.17
2019-01-28T05:42:51.118Z,3.83
2019-01-28T05:45:22.202Z,3.03
2019-01-28T05:47:50.653Z,4.00
2019-01-28T05:50:19.272Z,2.80
2019-01-28T05:52:47.753Z,2.07
2019-01-28T05:55:18.375Z,2.93
2019-01-28T05:57:46.989Z,3.70
2019-01-28T06:00:18.744Z,4.87
2019-01-28T06:02:47.360Z,1.83
2019-01-28T06:05:16.415Z,1.33
2019-01-28T06:07:44.897Z,1.33
2019-01-28T06:10:15.500Z,1.97
2019-01-28T06:12:44.135Z,3.33
2019-01-28T06:15:15.981Z,1.30
2019-01-28T06:17:44.759Z,1.57
2019-01-28T06:20:21.365Z,1.33
2019-01-28T06:22:49.985Z,2.93
2019-01-28T06:25:18.547Z,3.50
2019-01-28T06:27:47.274Z,2.83
2019-01-28T06:30:26.939Z,1.70
2019-01-28T06:32:55.888Z,1.37
2019-01-28T06:35:24.507Z,1.60
2019-01-28T06:37:53.699Z,1.43
2019-01-28T06:40:31.476Z,2.30
2019-01-28T06:42:59.967Z,1.30
2019-01-28T06:45:28.654Z,2.67
2019-01-28T06:47:57.181Z,2.00
2019-01-28T06:50:25.823Z,1.27
2019-01-28T06:52:54.358Z,1.40
2019-01-28T06:55:22.917Z,1.20
2019-01-28T06:57:51.463Z,1.90
2019-01-28T07:00:29.336Z,1.30
2019-01-28T07:02:58.060Z,1.60
2019-01-28T07:05:26.978Z,2.37
2019-01-28T07:07:55.535Z,2.73
2019-01-28T07:10:24.019Z,3.27
2019-01-28T07:12:52.624Z,2.60
2019-01-28T07:15:22.867Z,1.47
2019-01-28T07:17:54.911Z,2.63
2019-01-28T07:20:28.098Z,1.83
2019-01-28T07:22:56.589Z,1.80
2019-01-28T07:25:25.365Z,1.70
2019-01-28T07:27:53.860Z,2.67
2019-01-28T07:30:28.727Z,3.57
2019-01-28T07:32:57.351Z,4.20
2019-01-28T07:35:26.255Z,1.10
2019-01-28T07:37:55.141Z,1.40
2019-01-28T07:40:23.732Z,1.60
2019-01-28T07:42:52.547Z,1.43
2019-01-28T07:45:26.763Z,1.63
2019-01-28T07:48:02.401Z,2.50
2019-01-28T07:50:25.333Z,1.60
2019-01-28T07:52:53.888Z,1.30
2019-01-28T07:55:22.379Z,1.33
2019-01-28T07:57:50.928Z,1.27
2019-01-28T08:00:25.465Z,2.20
2019-01-28T08:02:54.273Z,1.30
2019-01-28T08:05:23.261Z,1.13
2019-01-28T08:07:51.847Z,1.37
2019-01-28T08:10:21.090Z,1.60
2019-01-28T08:12:50.372Z,5.07
2019-01-28T08:15:21.616Z,1.43
2019-01-28T08:17:50.173Z,1.03
2019-01-28T08:20:20.140Z,1.20
2019-01-28T08:22:49.007Z,1.30
2019-01-28T08:25:19.390Z,1.10
2019-01-28T08:27:48.428Z,2.83
2019-01-28T08:30:22.789Z,1.27
2019-01-28T08:32:51.235Z,2.23
2019-01-28T08:35:19.860Z,4.00
2019-01-28T08:37:48.297Z,2.13
2019-01-28T08:40:18.823Z,2.10
2019-01-28T08:42:47.338Z,2.20
2019-01-28T08:45:15.963Z,1.33
2019-01-28T08:47:44.433Z,2.57
2019-01-28T08:50:15.978Z,3.43
2019-01-28T08:52:44.472Z,2.57
2019-01-28T08:55:27.111Z,1.80
2019-01-28T08:57:56.104Z,1.47
2019-01-28T09:00:30.321Z,1.73
2019-01-28T09:02:59.331Z,2.17
2019-01-28T09:05:27.894Z,2.77
2019-01-28T09:07:56.606Z,1.67
2019-01-28T09:10:29.723Z,2.27
2019-01-28T09:12:58.350Z,1.60
2019-01-28T09:15:27.049Z,1.63
2019-01-28T09:17:55.876Z,3.40
2019-01-28T09:20:31.655Z,2.20
2019-01-28T09:23:00.272Z,1.83
2019-01-28T09:25:28.884Z,1.30
2019-01-28T09:27:57.511Z,2.13
2019-01-28T09:30:36.386Z,1.50
2019-01-28T09:33:05.332Z,2.10
2019-01-28T09:35:33.919Z,2.03
2019-01-28T09:38:02.577Z,4.17
2019-01-28T09:40:33.752Z,2.53
2019-01-28T09:43:02.301Z,1.60
2019-01-28T09:45:33.687Z,2.93
2019-01-28T09:48:02.258Z,2.03
2019-01-28T09:50:31.077Z,2.93
2019-01-28T09:52:59.999Z,2.33
2019-01-28T09:55:28.551Z,1.47
2019-01-28T09:57:57.018Z,3.40
2019-01-28T10:00:28.677Z,3.17
2019-01-28T10:02:57.500Z,2.90
2019-01-28T10:05:26.098Z,2.00
2019-01-28T10:07:54.656Z,2.00
2019-01-28T10:10:23.451Z,3.27
2019-01-28T10:12:52.071Z,2.00
2019-01-28T10:15:28.656Z,3.43
2019-01-28T10:17:56.002Z,2.03
2019-01-28T10:20:29.835Z,3.27
2019-01-28T10:22:58.313Z,1.70
2019-01-28T10:25:26.870Z,3.03
2019-01-28T10:27:55.409Z,2.90
2019-01-28T10:30:32.492Z,4.37
2019-01-28T10:33:01.127Z,1.60
2019-01-28T10:35:30.919Z,1.50
2019-01-28T10:37:59.491Z,1.93
2019-01-28T10:40:31.018Z,2.10
2019-01-28T10:42:59.558Z,2.10
2019-01-28T10:45:28.152Z,2.60
2019-01-28T10:48:00.661Z,2.37
2019-01-28T10:50:28.161Z,3.77
2019-01-28T10:52:56.767Z,2.53
2019-01-28T10:55:26.204Z,1.63
2019-01-28T10:57:55.406Z,1.50
2019-01-28T11:00:32.557Z,2.70
2019-01-28T11:03:00.785Z,2.23
2019-01-28T11:05:29.406Z,3.03
2019-01-28T11:07:58.046Z,5.10
2019-01-28T11:10:28.171Z,1.83
2019-01-28T11:12:57.176Z,3.80
2019-01-28T11:15:27.882Z,1.60
2019-01-28T11:17:57.309Z,1.33
2019-01-28T11:20:26.503Z,3.50
2019-01-28T11:22:55.018Z,1.53
2019-01-28T11:25:26.238Z,1.93
2019-01-28T11:27:54.972Z,2.53
2019-01-28T11:30:49.929Z,1.97
2019-01-28T11:33:18.508Z,1.67
2019-01-28T11:35:47.636Z,1.53
2019-01-28T11:38:17.093Z,1.50
2019-01-28T11:40:46.276Z,2.40
2019-01-28T11:43:15.010Z,4.73
2019-01-28T11:45:55.468Z,3.13
2019-01-28T11:48:24.230Z,2.37
2019-01-28T11:50:56.148Z,3.17
2019-01-28T11:53:23.016Z,6.60
2019-01-28T11:55:51.635Z,2.20
2019-01-28T11:58:20.137Z,2.83
2019-01-28T12:00:53.397Z,4.43
2019-01-28T12:03:21.856Z,3.83
2019-01-28T12:05:50.460Z,3.47
2019-01-28T12:08:19.289Z,2.53
2019-01-28T12:10:47.895Z,4.63
2019-01-28T12:13:16.546Z,2.37
2019-01-28T12:15:45.087Z,2.37
2019-01-28T12:18:13.906Z,3.63
2019-01-28T12:20:42.438Z,4.07
2019-01-28T12:23:10.951Z,3.83
2019-01-28T12:25:39.523Z,2.10
2019-01-28T12:28:08.340Z,2.50
2019-01-28T12:30:36.635Z,2.60
2019-01-28T12:33:04.856Z,2.50
2019-01-28T12:35:33.265Z,3.03
2019-01-28T12:38:01.749Z,1.77
2019-01-28T12:40:30.380Z,3.40
2019-01-28T12:42:58.846Z,2.67
2019-01-28T12:45:28.597Z,4.53
2019-01-28T12:47:56.804Z,2.87
2019-01-28T12:50:25.525Z,3.77
2019-01-28T12:52:54.352Z,2.63
2019-01-28T12:55:25.266Z,2.67
2019-01-28T12:57:53.846Z,4.07
2019-01-28T13:00:27.118Z,2.33
2019-01-28T13:02:55.683Z,2.80
2019-01-28T13:05:24.437Z,3.60
2019-01-28T13:07:53.272Z,3.10
2019-01-28T13:10:22.965Z,3.80
2019-01-28T13:12:51.555Z,2.47
2019-01-28T13:15:20.968Z,2.70
2019-01-28T13:17:49.594Z,2.07
2019-01-28T13:20:18.292Z,2.03
2019-01-28T13:22:47.021Z,2.87
2019-01-28T13:25:18.679Z,4.23
2019-01-28T13:27:47.231Z,2.60
2019-01-28T13:30:18.447Z,4.33
2019-01-28T13:32:47.266Z,3.80
2019-01-28T13:35:15.890Z,3.17
2019-01-28T13:37:44.386Z,2.30
2019-01-28T13:40:14.900Z,3.70
2019-01-28T13:42:43.583Z,2.37
2019-01-28T13:45:17.536Z,2.67
2019-01-28T13:47:46.906Z,2.80
2019-01-28T13:50:18.295Z,2.63
2019-01-28T13:52:47.092Z,3.27
2019-01-28T13:55:15.381Z,2.60
2019-01-28T13:57:43.919Z,3.00
2019-01-28T14:00:18.019Z,3.27
2019-01-28T14:02:46.646Z,2.33
2019-01-28T14:05:15.343Z,4.37
2019-01-28T14:07:44.071Z,1.80
2019-01-28T14:10:15.228Z,2.50
2019-01-28T14:12:43.858Z,3.83
2019-01-28T14:15:32.186Z,4.27
2019-01-28T14:18:00.665Z,2.83
2019-01-28T14:20:37.419Z,3.50
2019-01-28T14:23:06.130Z,3.30
2019-01-28T14:25:34.972Z,2.40
2019-01-28T14:28:05.683Z,2.50
2019-01-28T14:30:42.314Z,1.70
2019-01-28T14:33:11.377Z,3.30
2019-01-28T14:35:40.381Z,2.63
2019-01-28T14:38:11.465Z,4.37
2019-01-28T14:40:40.880Z,2.60
2019-01-28T14:43:09.650Z,2.40
2019-01-28T14:45:38.182Z,2.77
2019-01-28T14:48:07.583Z,3.53
2019-01-28T14:50:38.170Z,1.90
2019-01-28T14:53:06.722Z,4.10
2019-01-28T14:55:35.519Z,1.27
2019-01-28T14:58:05.331Z,2.30
2019-01-28T15:00:37.053Z,1.97
2019-01-28T15:03:05.890Z,2.93
2019-01-28T15:05:34.611Z,1.83
2019-01-28T15:08:03.233Z,3.73
2019-01-28T15:10:31.760Z,3.13
2019-01-28T15:13:00.249Z,2.77
2019-01-28T15:15:31.922Z,2.67
2019-01-28T15:18:00.730Z,3.20
2019-01-28T15:20:29.197Z,3.27
2019-01-28T15:22:59.522Z,3.33
2019-01-28T15:25:28.179Z,2.23
2019-01-28T15:27:56.644Z,3.57
2019-01-28T15:30:27.759Z,4.20
2019-01-28T15:32:56.644Z,3.63
2019-01-28T15:35:25.341Z,4.27
2019-01-28T15:37:53.941Z,3.70
2019-01-28T15:40:25.229Z,3.80
2019-01-28T15:42:53.719Z,5.43
2019-01-28T15:45:30.980Z,8.83
2019-01-28T15:47:59.463Z,9.50
2019-01-28T15:50:28.045Z,8.77
2019-01-28T15:52:56.580Z,10.53
2019-01-28T15:55:28.204Z,11.00
2019-01-28T15:57:56.779Z,18.77
2019-01-28T16:00:28.175Z,22.67
2019-01-28T16:02:56.766Z,19.37
2019-01-28T16:05:25.716Z,21.40
2019-01-28T16:07:54.156Z,17.40
2019-01-28T16:10:22.897Z,13.70
2019-01-28T16:12:51.393Z,12.17
2019-01-28T16:15:22.908Z,10.27
2019-01-28T16:17:51.452Z,12.47
2019-01-28T16:20:20.376Z,12.57
2019-01-28T16:22:49.008Z,10.87
2019-01-28T16:25:17.758Z,10.03
2019-01-28T16:27:46.316Z,10.90
2019-01-28T16:30:20.353Z,14.73
2019-01-28T16:32:48.978Z,24.30
2019-01-28T16:35:19.715Z,23.90
2019-01-28T16:37:49.403Z,32.40
2019-01-28T16:40:26.073Z,26.10
2019-01-28T16:42:55.021Z,21.40
2019-01-28T16:45:23.886Z,11.03
2019-01-28T16:47:52.421Z,10.27
2019-01-28T16:50:31.952Z,4.17
2019-01-28T16:53:00.501Z,5.10
2019-01-28T16:55:29.095Z,5.20
2019-01-28T16:57:58.853Z,6.33
2019-01-28T17:00:35.397Z,6.83
2019-01-28T17:03:04.436Z,6.87
2019-01-28T17:05:33.412Z,10.17
2019-01-28T17:08:02.221Z,7.67
2019-01-28T17:10:30.969Z,5.90
2019-01-28T17:12:59.494Z,9.33
2019-01-28T17:15:28.338Z,9.43
2019-01-28T17:17:56.871Z,10.63
2019-01-28T17:20:35.510Z,12.57
2019-01-28T17:23:01.275Z,9.27
2019-01-28T17:25:35.767Z,10.23
2019-01-28T17:28:04.487Z,14.73
2019-01-28T17:30:41.068Z,7.73
2019-01-28T17:33:10.244Z,10.27
2019-01-28T17:35:39.165Z,8.10
2019-01-28T17:38:08.375Z,9.43
2019-01-28T17:40:38.097Z,8.63
2019-01-28T17:43:08.066Z,7.23
2019-01-28T17:45:36.934Z,7.07
2019-01-28T17:48:08.169Z,9.60
2019-01-28T17:50:43.389Z,7.73
2019-01-28T17:53:07.219Z,8.20
2019-01-28T17:55:35.823Z,6.97
2019-01-28T17:58:05.064Z,7.57
2019-01-28T18:00:37.953Z,6.40
2019-01-28T18:03:06.600Z,7.40
2019-01-28T18:05:35.397Z,6.90
2019-01-28T18:08:04.658Z,7.50
2019-01-28T18:10:33.159Z,7.23
2019-01-28T18:13:01.613Z,6.43
2019-01-28T18:15:30.227Z,9.20
2019-01-28T18:17:58.698Z,10.60
2019-01-28T18:20:27.261Z,11.33
2019-01-28T18:22:55.868Z,9.97
2019-01-28T18:25:35.513Z,13.40
2019-01-28T18:28:05.047Z,15.10
2019-01-28T18:30:37.201Z,17.80
2019-01-28T18:33:06.004Z,13.73
2019-01-28T18:35:34.558Z,10.27
2019-01-28T18:38:03.273Z,7.60
2019-01-28T18:40:31.899Z,8.87
2019-01-28T18:43:00.437Z,6.07
2019-01-28T18:45:28.971Z,9.93
2019-01-28T18:47:57.543Z,11.30
2019-01-28T18:50:26.586Z,11.60
2019-01-28T18:52:55.204Z,11.13
2019-01-28T18:55:24.126Z,10.07
2019-01-28T18:57:52.667Z,13.37
2019-01-28T19:00:26.579Z,10.93
2019-01-28T19:02:55.993Z,11.13
2019-01-28T19:05:35.735Z,14.63
2019-01-28T19:08:15.921Z,11.33
2019-01-28T19:10:46.027Z,10.90
2019-01-28T19:13:16.235Z,9.90
2019-01-28T19:15:46.399Z,14.13
2019-01-28T19:18:16.676Z,12.93
2019-01-28T19:20:49.685Z,10.07
2019-01-28T19:23:18.665Z,9.50
2019-01-28T19:25:47.171Z,8.10
2019-01-28T19:28:15.631Z,7.07
2019-01-28T19:30:44.181Z,7.20
2019-01-28T19:33:12.667Z,8.80
2019-01-28T19:35:41.164Z,9.00
2019-01-28T19:38:09.735Z,9.83
2019-01-28T19:40:38.266Z,8.47
2019-01-28T19:43:06.917Z,8.30
2019-01-28T19:45:35.456Z,8.20
2019-01-28T19:48:07.460Z,6.53
2019-01-28T19:50:35.936Z,9.63
2019-01-28T19:53:04.533Z,8.77
2019-01-28T19:55:33.033Z,10.43
2019-01-28T19:58:01.482Z,13.10
2019-01-28T20:00:30.540Z,12.83
2019-01-28T20:02:59.074Z,12.90
2019-01-28T20:05:27.835Z,11.23
2019-01-28T20:07:56.396Z,9.90
2019-01-28T20:10:25.325Z,9.77
2019-01-28T20:12:53.805Z,8.90
2019-01-28T20:15:23.503Z,8.10
2019-01-28T20:17:52.157Z,8.50
2019-01-28T20:20:21.315Z,9.67
2019-01-28T20:22:49.821Z,9.67
2019-01-28T20:25:19.283Z,8.97
2019-01-28T20:27:48.168Z,9.53
2019-01-28T20:30:27.525Z,9.73
2019-01-28T20:32:56.018Z,11.03
2019-01-28T20:35:24.634Z,12.43
2019-01-28T20:37:53.096Z,9.97
2019-01-28T20:40:21.715Z,8.17
2019-01-28T20:42:51.882Z,10.90
2019-01-28T20:45:22.683Z,8.60
2019-01-28T20:47:51.334Z,9.27
2019-01-28T20:50:25.094Z,8.63
2019-01-28T20:52:53.782Z,7.57
2019-01-28T20:55:22.398Z,5.93
2019-01-28T20:57:51.021Z,8.97
2019-01-28T21:00:27.708Z,10.67
2019-01-28T21:02:56.749Z,9.83
2019-01-28T21:05:26.544Z,10.83
2019-01-28T21:07:55.246Z,10.93
2019-01-28T21:10:23.966Z,8.60
2019-01-28T21:12:53.812Z,10.40
2019-01-28T21:15:24.821Z,10.10
2019-01-28T21:17:53.419Z,10.17
2019-01-28T21:20:23.045Z,9.63
2019-01-28T21:22:51.885Z,10.07
2019-01-28T21:25:22.373Z,7.80
2019-01-28T21:27:51.007Z,10.13
2019-01-28T21:30:25.177Z,10.33
2019-01-28T21:32:53.712Z,9.63
2019-01-28T21:35:23.913Z,11.40
2019-01-28T21:38:00.808Z,11.57
2019-01-28T21:40:27.034Z,9.87
2019-01-28T21:42:55.516Z,10.80
2019-01-28T21:45:24.139Z,9.97
2019-01-28T21:48:00.546Z,12.27
2019-01-28T21:50:29.020Z,11.40
2019-01-28T21:52:58.661Z,9.70
2019-01-28T21:55:27.461Z,12.37
2019-01-28T21:57:55.934Z,12.60
2019-01-28T22:00:24.574Z,11.07
2019-01-28T22:02:53.122Z,13.70
2019-01-28T22:05:21.595Z,8.63
2019-01-28T22:07:50.084Z,9.00
2019-01-28T22:10:18.543Z,13.30
2019-01-28T22:12:47.026Z,9.90
2019-01-28T22:15:17.248Z,10.80
2019-01-28T22:17:46.112Z,15.97
2019-01-28T22:20:15.498Z,10.17
2019-01-28T22:22:44.105Z,9.30
2019-01-28T22:25:15.098Z,10.20
2019-01-28T22:27:43.956Z,11.10
2019-01-28T22:30:18.403Z,11.93
2019-01-28T22:32:47.037Z,13.70
2019-01-28T22:35:15.489Z,12.93
2019-01-28T22:37:43.957Z,10.13
2019-01-28T22:40:15.255Z,12.20
2019-01-28T22:42:44.273Z,7.80
2019-01-28T22:45:20.511Z,13.87
2019-01-28T22:47:49.065Z,13.03
2019-01-28T22:50:18.770Z,11.57
2019-01-28T22:52:47.439Z,11.83
2019-01-28T22:55:23.394Z,12.23
2019-01-28T22:57:51.856Z,12.80
2019-01-28T23:00:46.447Z,11.77
2019-01-28T23:03:15.848Z,12.17
2019-01-28T23:05:44.432Z,14.97
2019-01-28T23:08:13.324Z,15.17
2019-01-28T23:10:41.899Z,15.23
2019-01-28T23:13:10.373Z,10.80
2019-01-28T23:15:39.072Z,12.37
2019-01-28T23:18:07.809Z,13.40
2019-01-28T23:20:36.385Z,10.80
2019-01-28T23:23:05.683Z,11.93
2019-01-28T23:25:34.224Z,11.30
2019-01-28T23:28:03.005Z,13.93
2019-01-28T23:30:31.535Z,14.97
2019-01-28T23:33:00.025Z,12.13
2019-01-28T23:35:28.618Z,11.87
2019-01-28T23:37:57.247Z,9.97
2019-01-28T23:40:25.787Z,14.93
2019-01-28T23:42:57.469Z,13.80
2019-01-28T23:45:26.000Z,10.87
2019-01-28T23:47:54.468Z,10.73
2019-01-28T23:50:23.032Z,11.47
2019-01-28T23:52:51.584Z,11.33
2019-01-28T23:55:20.189Z,12.60
2019-01-28T23:57:56.436Z,11.07
